Time;durP1;ratioP1;P1;durP2;ratioP2;P2;SDS_P1;SDS_P2;PMS_P1;PMS_P2;Temp;Humidity;BMP_temperature;BMP_pressure;BME280_temperature;BME280_humidity;BME280_pressure;Samples;Min_cycle;Max_cycle;Signal;HPM_P1;HPM_P2
2022/04/13 00:02:24;;;;;;;4.53;1.90;;;;;;;;;;5040607;28;20049;-63
2022/04/13 00:04:57;;;;;;;5.43;1.60;;;;;;;;;;5043247;28;20096;-63
2022/04/13 00:07:24;;;;;;;5.35;2.15;;;;;;;;;;5039185;28;20477;-63
2022/04/13 00:09:50;;;;;;;3.40;1.50;;;;;;;;;;5042311;28;20060;-61
2022/04/13 00:12:23;;;;;;;4.35;1.88;;;;;;;;;;5038921;28;20081;-61
2022/04/13 00:14:50;;;;;;;4.57;1.65;;;;;;;;;;5044614;28;20052;-61
2022/04/13 00:17:16;;;;;;;6.25;1.73;;;;;;;;;;5037769;28;20132;-61
2022/04/13 00:19:43;;;;;;;5.35;1.85;;;;;;;;;;5036483;28;20135;-61
2022/04/13 00:22:09;;;;;;;5.60;1.80;;;;;;;;;;5041987;28;20120;-61
2022/04/13 00:24:36;;;;;;;6.95;1.52;;;;;;;;;;5039041;28;20073;-61
2022/04/13 00:27:04;;;;;;;3.75;1.58;;;;;;;;;;5037290;28;20081;-61
2022/04/13 00:29:31;;;;;;;3.72;1.40;;;;;;;;;;5037023;28;20144;-61
2022/04/13 00:31:58;;;;;;;6.40;1.58;;;;;;;;;;5038158;28;20080;-61
2022/04/13 00:34:31;;;;;;;3.15;1.50;;;;;;;;;;5035561;28;20085;-61
2022/04/13 00:36:58;;;;;;;5.47;1.90;;;;;;;;;;5037595;28;20076;-61
2022/04/13 00:39:25;;;;;;;4.55;1.65;;;;;;;;;;5036963;28;20099;-61
2022/04/13 00:42:03;;;;;;;3.40;1.50;;;;;;;;;;5040592;28;20049;-61
2022/04/13 00:44:30;;;;;;;5.28;1.80;;;;;;;;;;5037370;28;20083;-61
2022/04/13 00:46:57;;;;;;;4.80;1.48;;;;;;;;;;5038989;28;20080;-61
2022/04/13 00:49:30;;;;;;;8.35;1.75;;;;;;;;;;5042301;28;20049;-61
2022/04/13 00:51:58;;;;;;;4.05;1.48;;;;;;;;;;5039003;28;20132;-61
2022/04/13 00:54:24;;;;;;;;;;;;;;;;;;5038578;28;20937;-61
2022/04/13 00:56:58;;;;;;;1.77;1.23;;;;;;;;;;5036603;28;20007;-61
2022/04/13 00:59:25;;;;;;;3.55;1.25;;;;;;;;;;5037804;28;20139;-61
2022/04/13 01:01:53;;;;;;;5.13;2.03;;;;;;;;;;5038492;28;20488;-61
2022/04/13 01:04:21;;;;;;;3.67;1.60;;;;;;;;;;5039185;28;20053;-61
2022/04/13 01:06:48;;;;;;;3.00;1.70;;;;;;;;;;5041313;28;20168;-61
2022/04/13 01:09:15;;;;;;;5.40;1.60;;;;;;;;;;5034760;28;20567;-61
2022/04/13 01:11:44;;;;;;;4.70;1.75;;;;;;;;;;5039131;28;20049;-61
2022/04/13 01:14:10;;;;;;;5.00;1.50;;;;;;;;;;5039972;28;20669;-61
2022/04/13 01:16:40;;;;;;;3.40;1.30;;;;;;;;;;5036274;28;20132;-61
2022/04/13 01:19:16;;;;;;;2.90;1.50;;;;;;;;;;5037519;28;20420;-61
2022/04/13 01:21:47;;;;;;;3.78;1.60;;;;;;;;;;5041063;28;20139;-61
2022/04/13 01:24:21;;;;;;;2.95;1.58;;;;;;;;;;5040208;28;20081;-61
2022/04/13 01:26:47;;;;;;;5.15;1.58;;;;;;;;;;5039791;28;20054;-61
2022/04/13 01:29:14;;;;;;;4.47;1.80;;;;;;;;;;5036212;28;20076;-61
2022/04/13 01:31:49;;;;;;;2.08;1.40;;;;;;;;;;5039514;28;20152;-61
2022/04/13 01:34:15;;;;;;;3.00;1.40;;;;;;;;;;5040312;28;20469;-61
2022/04/13 01:36:42;;;;;;;6.40;1.30;;;;;;;;;;5040583;28;20572;-61
2022/04/13 01:39:16;;;;;;;4.60;1.70;;;;;;;;;;5037368;28;20049;-61
2022/04/13 01:41:42;;;;;;;3.97;1.60;;;;;;;;;;5037764;28;20087;-61
2022/04/13 01:44:08;;;;;;;3.28;1.48;;;;;;;;;;5039037;28;20386;-61
2022/04/13 01:46:34;;;;;;;2.70;1.42;;;;;;;;;;5035568;28;20120;-61
2022/04/13 01:49:01;;;;;;;3.20;1.60;;;;;;;;;;5040214;28;20132;-61
2022/04/13 01:51:27;;;;;;;5.00;1.33;;;;;;;;;;5036919;28;20137;-61
2022/04/13 01:53:54;;;;;;;6.82;1.17;;;;;;;;;;5036101;28;20081;-61
2022/04/13 01:56:21;;;;;;;4.13;1.47;;;;;;;;;;5031916;28;20518;-61
2022/04/13 01:58:47;;;;;;;2.65;1.30;;;;;;;;;;5039075;28;20512;-61
2022/04/13 02:01:20;;;;;;;1.98;1.48;;;;;;;;;;5035210;28;20092;-61
2022/04/13 02:03:50;;;;;;;5.68;1.80;;;;;;;;;;5039153;28;20041;-61
2022/04/13 02:06:16;;;;;;;3.05;1.50;;;;;;;;;;5038096;28;20084;-61
2022/04/13 02:08:49;;;;;;;1.50;1.30;;;;;;;;;;5042457;28;20128;-61
2022/04/13 02:11:16;;;;;;;4.80;1.40;;;;;;;;;;5040215;28;20089;-61
2022/04/13 02:13:42;;;;;;;3.17;1.27;;;;;;;;;;5043820;28;20132;-61
2022/04/13 02:16:10;;;;;;;2.67;1.45;;;;;;;;;;5040943;28;20132;-61
2022/04/13 02:18:37;;;;;;;2.77;1.03;;;;;;;;;;5042793;28;20081;-61
2022/04/13 02:21:03;;;;;;;2.45;1.20;;;;;;;;;;5039116;28;20589;-61
2022/04/13 02:23:30;;;;;;;6.40;1.67;;;;;;;;;;5041541;28;20363;-61
2022/04/13 02:25:59;;;;;;;3.10;1.38;;;;;;;;;;5039358;28;20143;-61
2022/04/13 02:28:26;;;;;;;;;;;;;;;;;;5037820;28;20482;-61
2022/04/13 02:30:52;;;;;;;1.95;1.10;;;;;;;;;;5040738;28;19976;-61
2022/04/13 02:33:21;;;;;;;3.45;1.35;;;;;;;;;;5039394;28;20128;-61
2022/04/13 02:35:49;;;;;;;7.45;2.03;;;;;;;;;;5039901;28;20208;-61
2022/04/13 02:38:16;;;;;;;3.13;0.98;;;;;;;;;;5032738;28;20090;-61
2022/04/13 02:40:43;;;;;;;2.13;1.40;;;;;;;;;;5018165;28;20053;-61
2022/04/13 02:43:11;;;;;;;4.47;1.47;;;;;;;;;;5022214;28;20084;-61
2022/04/13 02:45:37;;;;;;;3.88;1.30;;;;;;;;;;5025454;28;20149;-61
2022/04/13 02:48:04;;;;;;;2.73;1.40;;;;;;;;;;5019372;28;20049;-61
2022/04/13 02:50:31;;;;;;;3.95;1.30;;;;;;;;;;5024108;28;20549;-61
2022/04/13 02:52:58;;;;;;;3.72;1.30;;;;;;;;;;5021535;28;20233;-61
2022/04/13 02:55:25;;;;;;;5.35;1.58;;;;;;;;;;5018874;28;20488;-61
2022/04/13 02:57:51;;;;;;;4.50;1.17;;;;;;;;;;5021191;28;20073;-61
2022/04/13 03:00:24;;;;;;;3.00;1.40;;;;;;;;;;5026761;28;20132;-61
2022/04/13 03:02:51;;;;;;;4.40;1.60;;;;;;;;;;5018584;28;20133;-61
2022/04/13 03:05:17;;;;;;;3.22;1.30;;;;;;;;;;5038513;28;20053;-61
2022/04/13 03:07:45;;;;;;;2.78;1.25;;;;;;;;;;5021183;28;20161;-61
2022/04/13 03:10:11;;;;;;;2.60;1.02;;;;;;;;;;5020740;28;20133;-61
2022/04/13 03:12:38;;;;;;;2.05;1.10;;;;;;;;;;5021599;28;20050;-61
2022/04/13 03:15:08;;;;;;;2.60;1.10;;;;;;;;;;5024295;28;20141;-61
2022/04/13 03:17:35;;;;;;;2.72;1.10;;;;;;;;;;5020551;28;20083;-61
2022/04/13 03:20:01;;;;;;;2.38;1.23;;;;;;;;;;5016384;28;20457;-61
2022/04/13 03:22:30;;;;;;;2.08;1.20;;;;;;;;;;5019937;28;20197;-62
2022/04/13 03:24:58;;;;;;;3.13;1.05;;;;;;;;;;5021484;28;20077;-63
2022/04/13 03:27:25;;;;;;;1.55;1.00;;;;;;;;;;5022768;28;20589;-63
2022/04/13 03:29:58;;;;;;;1.90;1.10;;;;;;;;;;5018717;28;20142;-63
2022/04/13 03:32:24;;;;;;;1.15;0.80;;;;;;;;;;5019221;28;20144;-63
2022/04/13 03:34:51;;;;;;;1.70;1.00;;;;;;;;;;5022785;28;20136;-63
2022/04/13 03:37:24;;;;;;;2.40;1.17;;;;;;;;;;5016899;28;20073;-63
2022/04/13 03:39:51;;;;;;;2.28;1.10;;;;;;;;;;5036190;28;20580;-63
2022/04/13 03:42:17;;;;;;;1.58;0.88;;;;;;;;;;5037907;28;20155;-63
2022/04/13 03:44:44;;;;;;;4.60;1.45;;;;;;;;;;5038456;28;20081;-63
2022/04/13 03:47:11;;;;;;;3.17;1.08;;;;;;;;;;5044331;28;20564;-63
2022/04/13 03:49:37;;;;;;;3.17;1.33;;;;;;;;;;5041223;28;20053;-64
2022/04/13 03:52:07;;;;;;;4.63;1.52;;;;;;;;;;5040156;28;20132;-63
2022/04/13 03:54:33;;;;;;;5.38;1.15;;;;;;;;;;5037507;28;20172;-63
2022/04/13 03:57:00;;;;;;;2.35;1.10;;;;;;;;;;5041592;28;20128;-63
2022/04/13 03:59:30;;;;;;;2.38;1.20;;;;;;;;;;5029300;28;20144;-63
2022/04/13 04:01:56;;;;;;;2.88;1.40;;;;;;;;;;5035401;28;20438;-63
2022/04/13 04:04:23;;;;;;;3.35;1.15;;;;;;;;;;5041312;28;20110;-63
2022/04/13 04:06:56;;;;;;;1.90;1.00;;;;;;;;;;5040929;28;20382;-63
2022/04/13 04:09:22;;;;;;;3.70;1.02;;;;;;;;;;5040034;28;20556;-63
2022/04/13 04:11:49;;;;;;;1.30;0.80;;;;;;;;;;5040526;28;20564;-63
2022/04/13 04:14:16;;;;;;;2.13;1.07;;;;;;;;;;5039320;28;20144;-64
2022/04/13 04:16:42;;;;;;;5.82;1.10;;;;;;;;;;5038330;28;20053;-63
2022/04/13 04:19:09;;;;;;;4.90;1.00;;;;;;;;;;5040867;28;20049;-63
2022/04/13 04:21:36;;;;;;;1.75;1.20;;;;;;;;;;5038487;28;20057;-63
2022/04/13 04:24:03;;;;;;;2.03;1.02;;;;;;;;;;5038038;28;20057;-63
2022/04/13 04:26:30;;;;;;;2.55;1.02;;;;;;;;;;5038974;28;20140;-63
2022/04/13 04:29:03;;;;;;;3.38;1.02;;;;;;;;;;5037057;28;20083;-63
2022/04/13 04:34:23;;;;;;;2.83;1.10;;;;;;;;;;5041721;28;20041;-63
2022/04/13 04:36:49;;;;;;;2.20;1.02;;;;;;;;;;5038825;28;20156;-63
2022/04/13 04:39:16;;;;;;;5.10;1.30;;;;;;;;;;5029791;28;20409;-63
2022/04/13 04:41:43;;;;;;;2.47;1.00;;;;;;;;;;5019282;28;20076;-63
2022/04/13 04:44:10;;;;;;;2.55;1.02;;;;;;;;;;5019457;28;20557;-63
2022/04/13 04:46:37;;;;;;;4.45;1.10;;;;;;;;;;5018374;28;20136;-63
2022/04/13 04:49:06;;;;;;;3.78;1.90;;;;;;;;;;5016115;28;20054;-63
2022/04/13 04:51:32;;;;;;;3.25;1.45;;;;;;;;;;5018039;28;20070;-63
2022/04/13 04:53:59;;;;;;;2.37;1.23;;;;;;;;;;5020391;28;20506;-63
2022/04/13 04:56:28;;;;;;;2.90;1.20;;;;;;;;;;5019110;28;20136;-63
2022/04/13 04:58:55;;;;;;;3.13;1.00;;;;;;;;;;5019282;28;20081;-63
2022/04/13 05:01:25;;;;;;;2.50;1.00;;;;;;;;;;5018192;28;20053;-63
2022/04/13 05:03:58;;;;;;;1.98;1.25;;;;;;;;;;5016287;28;20050;-64
2022/04/13 05:06:28;;;;;;;3.50;1.80;;;;;;;;;;5019238;28;20077;-63
2022/04/13 05:08:57;;;;;;;2.28;1.10;;;;;;;;;;5020563;28;20077;-63
2022/04/13 05:11:31;;;;;;;4.40;0.98;;;;;;;;;;5017950;28;20087;-63
2022/04/13 05:13:58;;;;;;;2.35;1.17;;;;;;;;;;5016438;28;20581;-63
2022/04/13 05:16:24;;;;;;;2.22;1.10;;;;;;;;;;5023097;28;20570;-63
2022/04/13 05:18:51;;;;;;;2.00;1.02;;;;;;;;;;5022226;28;20479;-63
2022/04/13 05:21:17;;;;;;;1.08;0.77;;;;;;;;;;5016097;28;20112;-63
2022/04/13 05:23:44;;;;;;;3.38;1.05;;;;;;;;;;5018479;28;20073;-63
2022/04/13 05:26:12;;;;;;;1.88;1.02;;;;;;;;;;5019870;28;20161;-63
2022/04/13 05:28:39;;;;;;;2.40;1.30;;;;;;;;;;5018727;28;20774;-63
2022/04/13 05:31:06;;;;;;;3.70;1.50;;;;;;;;;;5024538;28;20093;-63
2022/04/13 05:33:33;;;;;;;2.75;0.95;;;;;;;;;;5015905;28;20054;-63
2022/04/13 05:35:59;;;;;;;3.60;1.40;;;;;;;;;;5018802;28;20128;-63
2022/04/13 05:38:25;;;;;;;2.58;1.38;;;;;;;;;;5022304;28;20156;-63
2022/04/13 05:40:55;;;;;;;3.90;1.83;;;;;;;;;;5039212;28;20124;-64
2022/04/13 05:43:22;;;;;;;6.65;1.40;;;;;;;;;;5042962;28;20149;-64
2022/04/13 05:45:49;;;;;;;4.65;1.50;;;;;;;;;;5045518;28;20049;-63
2022/04/13 05:48:16;;;;;;;4.30;1.10;;;;;;;;;;5042888;28;20070;-64
2022/04/13 05:50:42;;;;;;;2.53;1.10;;;;;;;;;;5040395;28;20140;-64
2022/04/13 05:53:15;;;;;;;3.53;1.40;;;;;;;;;;5040680;28;20077;-64
2022/04/13 05:55:42;;;;;;;2.15;1.48;;;;;;;;;;5041835;28;20084;-64
2022/04/13 05:58:08;;;;;;;2.13;1.30;;;;;;;;;;5041719;28;20132;-62
2022/04/13 06:00:35;;;;;;;3.85;1.13;;;;;;;;;;5038164;28;20080;-61
2022/04/13 06:03:02;;;;;;;1.83;0.93;;;;;;;;;;5040688;28;20084;-61
2022/04/13 06:05:42;;;;;;;1.00;0.75;;;;;;;;;;5042678;28;20056;-61
2022/04/13 06:08:09;;;;;;;1.23;0.98;;;;;;;;;;5042291;28;20142;-62
2022/04/13 06:10:36;;;;;;;1.67;1.10;;;;;;;;;;5035114;28;20105;-62
2022/04/13 06:13:02;;;;;;;2.33;1.08;;;;;;;;;;5039645;28;20084;-61
2022/04/13 06:15:31;;;;;;;6.45;1.52;;;;;;;;;;5032341;28;20461;-62
2022/04/13 06:17:58;;;;;;;1.95;0.95;;;;;;;;;;5043951;28;20065;-61
2022/04/13 06:20:24;;;;;;;3.00;1.10;;;;;;;;;;5044352;28;20147;-62
2022/04/13 06:22:52;;;;;;;4.70;1.15;;;;;;;;;;5041619;28;20093;-61
2022/04/13 06:25:19;;;;;;;3.70;1.20;;;;;;;;;;5044441;28;20098;-61
2022/04/13 06:27:45;;;;;;;1.73;1.00;;;;;;;;;;5044276;28;20112;-62
2022/04/13 06:30:13;;;;;;;2.87;1.13;;;;;;;;;;5039663;28;20339;-61
2022/04/13 06:32:40;;;;;;;4.60;1.50;;;;;;;;;;5042193;28;20905;-62
2022/04/13 06:35:07;;;;;;;5.32;1.63;;;;;;;;;;5043028;28;20133;-62
2022/04/13 06:37:36;;;;;;;3.28;1.25;;;;;;;;;;5043950;28;20055;-63
2022/04/13 06:40:02;;;;;;;2.42;1.20;;;;;;;;;;5042911;28;20136;-62
2022/04/13 06:42:31;;;;;;;3.03;1.50;;;;;;;;;;5038407;28;20088;-62
2022/04/13 06:44:59;;;;;;;4.18;1.00;;;;;;;;;;5041934;28;20137;-64
2022/04/13 06:47:29;;;;;;;4.10;1.45;;;;;;;;;;5039090;28;20079;-64
2022/04/13 06:49:55;;;;;;;2.47;1.15;;;;;;;;;;5044131;28;20053;-64
2022/04/13 06:52:22;;;;;;;4.90;1.27;;;;;;;;;;5039663;28;20132;-64
2022/04/13 06:54:48;;;;;;;6.32;1.50;;;;;;;;;;5041504;28;20088;-64
2022/04/13 06:57:15;;;;;;;3.28;1.13;;;;;;;;;;5034779;28;20142;-63
2022/04/13 06:59:42;;;;;;;1.80;1.23;;;;;;;;;;5039484;28;20168;-64
2022/04/13 07:02:12;;;;;;;2.15;1.27;;;;;;;;;;5041906;28;20132;-64
2022/04/13 07:04:39;;;;;;;2.80;1.48;;;;;;;;;;5039869;28;20049;-63
2022/04/13 07:07:06;;;;;;;2.40;1.02;;;;;;;;;;5044170;28;20072;-63
2022/04/13 07:09:33;;;;;;;3.60;0.90;;;;;;;;;;5041557;28;20076;-64
2022/04/13 07:11:59;;;;;;;2.28;1.25;;;;;;;;;;5042462;28;20133;-64
2022/04/13 07:14:32;;;;;;;3.63;1.30;;;;;;;;;;5040962;28;20133;-63
2022/04/13 07:16:59;;;;;;;1.77;1.20;;;;;;;;;;5042788;28;20588;-63
2022/04/13 07:19:25;;;;;;;3.92;1.30;;;;;;;;;;5035376;28;20045;-63
2022/04/13 07:21:56;;;;;;;3.33;1.50;;;;;;;;;;5041418;28;20076;-63
2022/04/13 07:24:27;;;;;;;2.17;1.33;;;;;;;;;;5041304;28;20046;-63
2022/04/13 07:26:54;;;;;;;7.03;1.50;;;;;;;;;;5040892;28;20081;-63
2022/04/13 07:29:21;;;;;;;3.07;1.23;;;;;;;;;;5038265;28;20080;-63
2022/04/13 07:31:47;;;;;;;5.82;1.20;;;;;;;;;;5054497;28;20298;-63
2022/04/13 07:34:14;;;;;;;3.08;1.42;;;;;;;;;;5039645;28;20054;-64
2022/04/13 07:36:41;;;;;;;4.07;1.65;;;;;;;;;;5040603;28;20505;-63
2022/04/13 07:39:07;;;;;;;3.15;1.10;;;;;;;;;;5035137;28;20141;-64
2022/04/13 07:41:33;;;;;;;7.47;1.60;;;;;;;;;;5041117;28;20049;-64
2022/04/13 07:44:00;;;;;;;4.32;1.40;;;;;;;;;;5039704;28;20136;-64
2022/04/13 07:46:29;;;;;;;3.47;1.42;;;;;;;;;;5042097;28;20052;-64
2022/04/13 07:48:55;;;;;;;3.53;1.50;;;;;;;;;;5041417;28;20415;-64
2022/04/13 07:51:22;;;;;;;4.07;1.42;;;;;;;;;;5042701;28;20088;-64
2022/04/13 07:53:48;;;;;;;8.70;1.60;;;;;;;;;;5041237;28;20132;-64
2022/04/13 07:56:15;;;;;;;4.25;1.60;;;;;;;;;;5036742;28;20132;-64
2022/04/13 07:58:42;;;;;;;4.20;1.23;;;;;;;;;;5038275;28;20470;-65
2022/04/13 08:01:08;;;;;;;6.68;1.52;;;;;;;;;;5041084;28;20136;-64
2022/04/13 08:03:35;;;;;;;4.32;1.35;;;;;;;;;;5038866;28;20700;-64
2022/04/13 08:06:03;;;;;;;2.95;1.23;;;;;;;;;;5039906;28;20049;-64
2022/04/13 08:08:30;;;;;;;5.40;2.03;;;;;;;;;;5039906;28;20459;-64
2022/04/13 08:10:56;;;;;;;3.92;1.63;;;;;;;;;;5040382;28;20114;-64
2022/04/13 08:13:25;;;;;;;4.80;1.23;;;;;;;;;;5039361;28;20560;-64
2022/04/13 08:16:12;;;;;;;2.97;1.35;;;;;;;;;;5040352;28;20053;-64
2022/04/13 08:18:39;;;;;;;7.05;1.48;;;;;;;;;;5038378;28;20085;-64
2022/04/13 08:21:06;;;;;;;4.70;1.45;;;;;;;;;;5041793;28;20100;-64
2022/04/13 08:23:32;;;;;;;8.23;2.53;;;;;;;;;;5041385;28;20131;-64
2022/04/13 08:25:59;;;;;;;4.28;1.30;;;;;;;;;;5036963;28;20582;-64
2022/04/13 08:28:25;;;;;;;10.93;1.85;;;;;;;;;;5038618;28;20080;-64
2022/04/13 08:30:52;;;;;;;4.18;1.38;;;;;;;;;;5038550;28;20046;-64
2022/04/13 08:33:19;;;;;;;;;;;;;;;;;;5040223;28;20128;-64
2022/04/13 08:35:46;;;;;;;6.95;1.83;;;;;;;;;;5039047;28;20273;-64
2022/04/13 08:38:12;;;;;;;4.70;1.58;;;;;;;;;;5034991;28;20124;-64
2022/04/13 08:40:44;;;;;;;3.30;1.40;;;;;;;;;;5037059;28;20140;-64
2022/04/13 08:43:10;;;;;;;5.25;2.03;;;;;;;;;;5039902;28;20560;-64
2022/04/13 08:45:50;;;;;;;3.75;1.35;;;;;;;;;;5038567;28;20057;-65
2022/04/13 08:48:19;;;;;;;3.25;1.75;;;;;;;;;;5036332;28;20552;-64
2022/04/13 08:50:45;;;;;;;3.90;1.48;;;;;;;;;;5039922;28;20104;-64
2022/04/13 08:53:13;;;;;;;3.35;1.77;;;;;;;;;;5038469;28;20131;-64
2022/04/13 08:55:46;;;;;;;6.93;1.88;;;;;;;;;;5041587;28;20467;-64
2022/04/13 08:58:13;;;;;;;5.85;1.90;;;;;;;;;;5039396;28;20049;-64
2022/04/13 09:00:41;;;;;;;5.05;1.48;;;;;;;;;;5039059;28;20483;-64
2022/04/13 09:03:20;;;;;;;2.03;1.50;;;;;;;;;;5038659;28;20085;-65
2022/04/13 09:05:49;;;;;;;5.00;1.17;;;;;;;;;;5041241;28;20045;-64
2022/04/13 09:08:22;;;;;;;5.32;1.75;;;;;;;;;;5039389;28;20083;-64
2022/04/13 09:10:50;;;;;;;1.80;0.95;;;;;;;;;;5037229;28;20081;-64
2022/04/13 09:13:18;;;;;;;3.75;1.88;;;;;;;;;;5037840;28;20087;-64
2022/04/13 09:15:45;;;;;;;6.55;1.90;;;;;;;;;;5043220;28;20049;-64
2022/04/13 09:18:17;;;;;;;3.95;1.48;;;;;;;;;;5038478;28;20057;-64
2022/04/13 09:20:44;;;;;;;3.58;2.10;;;;;;;;;;5045048;28;20104;-64
2022/04/13 09:23:12;;;;;;;2.22;1.55;;;;;;;;;;5043203;28;20075;-65
2022/04/13 09:25:40;;;;;;;6.63;1.58;;;;;;;;;;5042053;28;20131;-65
2022/04/13 09:28:09;;;;;;;5.25;1.75;;;;;;;;;;5041441;28;20084;-65
2022/04/13 09:30:36;;;;;;;10.98;2.28;;;;;;;;;;5039887;28;20053;-65
2022/04/13 09:33:05;;;;;;;10.95;2.25;;;;;;;;;;5046118;28;20132;-65
2022/04/13 09:35:32;;;;;;;4.47;1.95;;;;;;;;;;5039505;28;20234;-64
2022/04/13 09:38:03;;;;;;;6.28;1.92;;;;;;;;;;5043589;28;20140;-64
2022/04/13 09:40:40;;;;;;;7.07;2.40;;;;;;;;;;5038802;28;20115;-64
2022/04/13 09:43:15;;;;;;;6.90;2.40;;;;;;;;;;5041271;28;20091;-64
2022/04/13 09:45:43;;;;;;;;;;;;;;;;;;5038086;28;20083;-64
2022/04/13 09:48:10;;;;;;;13.60;2.85;;;;;;;;;;5037934;28;19920;-64
2022/04/13 09:50:37;;;;;;;10.90;3.45;;;;;;;;;;5042084;28;20673;-64
2022/04/13 09:53:06;;;;;;;6.35;1.83;;;;;;;;;;5046101;28;20049;-64
2022/04/13 09:55:33;;;;;;;9.35;3.17;;;;;;;;;;5039504;28;20512;-64
2022/04/13 09:58:10;;;;;;;3.17;2.13;;;;;;;;;;5040561;28;20590;-64
2022/04/13 10:00:39;;;;;;;12.15;4.03;;;;;;;;;;5042061;28;20159;-64
2022/04/13 10:03:07;;;;;;;11.48;3.13;;;;;;;;;;5040802;28;20053;-64
2022/04/13 10:05:34;;;;;;;11.50;3.45;;;;;;;;;;5038086;28;20080;-64
2022/04/13 10:08:05;;;;;;;7.13;3.40;;;;;;;;;;5041569;28;20133;-64
2022/04/13 10:10:32;;;;;;;10.20;3.53;;;;;;;;;;5040729;28;20488;-64
2022/04/13 10:12:58;;;;;;;8.23;3.05;;;;;;;;;;5042864;28;20084;-65
2022/04/13 10:15:28;;;;;;;4.63;2.95;;;;;;;;;;5041889;28;20504;-64
2022/04/13 10:18:01;;;;;;;9.75;4.13;;;;;;;;;;5042518;28;20052;-64
2022/04/13 10:20:45;;;;;;;10.23;3.80;;;;;;;;;;5041822;28;20079;-65
2022/04/13 10:23:16;;;;;;;7.90;3.78;;;;;;;;;;5043271;28;20079;-65
2022/04/13 10:25:43;;;;;;;7.00;4.13;;;;;;;;;;5043284;28;20128;-64
2022/04/13 10:28:12;;;;;;;7.43;2.88;;;;;;;;;;5042593;28;20079;-65
2022/04/13 10:30:41;;;;;;;8.57;3.88;;;;;;;;;;5026248;28;20123;-65
2022/04/13 10:33:08;;;;;;;8.20;3.85;;;;;;;;;;5039809;28;20138;-65
2022/04/13 10:35:35;;;;;;;;;;;;;;;;;;5041843;28;20132;-65
2022/04/13 10:38:03;;;;;;;8.25;3.85;;;;;;;;;;5040628;28;19967;-65
2022/04/13 10:40:30;;;;;;;7.13;3.60;;;;;;;;;;5041385;28;20110;-65
2022/04/13 10:43:07;;;;;;;10.55;3.50;;;;;;;;;;5040428;28;20164;-65
2022/04/13 10:45:34;;;;;;;6.28;3.53;;;;;;;;;;5039300;28;20087;-65
2022/04/13 10:48:03;;;;;;;10.07;4.28;;;;;;;;;;5041026;28;20085;-65
2022/04/13 10:50:36;;;;;;;8.50;3.45;;;;;;;;;;5039764;28;20128;-65
2022/04/13 10:53:14;;;;;;;9.82;3.85;;;;;;;;;;5042832;28;20056;-65
2022/04/13 10:55:44;;;;;;;14.93;4.90;;;;;;;;;;5041202;28;20517;-65
2022/04/13 10:58:18;;;;;;;18.17;4.80;;;;;;;;;;5040661;28;20478;-65
2022/04/13 11:00:46;;;;;;;8.50;4.45;;;;;;;;;;5042795;28;20079;-65
2022/04/13 11:03:13;;;;;;;;;;;;;;;;;;5042916;28;20095;-65
2022/04/13 11:05:40;;;;;;;8.07;4.53;;;;;;;;;;5042143;28;19931;-65
2022/04/13 11:08:16;;;;;;;10.30;4.93;;;;;;;;;;5039836;28;20073;-65
2022/04/13 11:10:47;;;;;;;11.40;5.32;;;;;;;;;;5040099;28;20568;-65
2022/04/13 11:13:16;;;;;;;15.27;5.35;;;;;;;;;;5038767;28;20088;-65
2022/04/13 11:15:43;;;;;;;;;;;;;;;;;;5042649;28;20084;-65
2022/04/13 11:18:10;;;;;;;9.45;4.00;;;;;;;;;;5039498;28;20383;-65
2022/04/13 11:20:38;;;;;;;9.70;5.05;;;;;;;;;;5039524;28;20136;-65
2022/04/13 11:23:08;;;;;;;13.57;5.18;;;;;;;;;;5040980;28;20048;-65
2022/04/13 11:25:51;;;;;;;12.27;5.13;;;;;;;;;;5038343;28;20116;-65
2022/04/13 11:28:24;;;;;;;12.98;4.65;;;;;;;;;;5039303;28;20136;-64
2022/04/13 11:31:04;;;;;;;13.07;4.93;;;;;;;;;;5042201;28;20080;-65
2022/04/13 11:33:52;;;;;;;11.63;4.43;;;;;;;;;;5033879;28;20061;-65
2022/04/13 11:36:19;;;;;;;9.10;4.15;;;;;;;;;;5036071;28;20099;-65
2022/04/13 11:39:06;;;;;;;11.32;5.13;;;;;;;;;;5037942;28;20053;-64
2022/04/13 11:41:32;;;;;;;14.52;5.32;;;;;;;;;;5036756;28;20176;-65
2022/04/13 11:44:15;;;;;;;8.50;4.38;;;;;;;;;;5042361;28;20737;-65
2022/04/13 11:46:43;;;;;;;8.63;4.15;;;;;;;;;;5042886;28;20098;-64
2022/04/13 11:49:16;;;;;;;10.07;4.57;;;;;;;;;;5035429;28;20102;-65
2022/04/13 11:51:43;;;;;;;9.30;4.47;;;;;;;;;;5037136;28;20504;-65
2022/04/13 11:54:13;;;;;;;9.02;4.72;;;;;;;;;;5037615;28;20116;-65
2022/04/13 11:56:52;;;;;;;9.15;4.90;;;;;;;;;;5040726;28;20131;-65
2022/04/13 11:59:48;;;;;;;9.48;5.10;;;;;;;;;;5040736;28;20464;-65
2022/04/13 12:02:20;;;;;;;13.02;5.05;;;;;;;;;;5038184;28;20080;-66
2022/04/13 12:04:47;;;;;;;9.18;5.07;;;;;;;;;;5034829;28;20067;-65
2022/04/13 12:07:14;;;;;;;10.23;5.15;;;;;;;;;;5038261;28;20085;-65
2022/04/13 12:09:40;;;;;;;12.60;5.25;;;;;;;;;;5041030;28;20152;-65
2022/04/13 12:12:12;;;;;;;9.48;4.30;;;;;;;;;;5040819;28;20709;-65
2022/04/13 12:14:40;;;;;;;12.00;5.40;;;;;;;;;;5033877;28;20088;-65
2022/04/13 12:17:13;;;;;;;11.40;5.40;;;;;;;;;;5037803;28;20129;-65
2022/04/13 12:19:41;;;;;;;13.15;5.28;;;;;;;;;;5038538;28;20128;-65
2022/04/13 12:22:14;;;;;;;11.10;4.35;;;;;;;;;;5040909;28;20053;-65
2022/04/13 12:24:57;;;;;;;10.63;5.22;;;;;;;;;;5036980;28;20131;-65
2022/04/13 12:27:23;;;;;;;11.20;5.07;;;;;;;;;;5042828;28;20665;-65
2022/04/13 12:30:12;;;;;;;11.80;5.03;;;;;;;;;;5034117;28;20085;-65
2022/04/13 12:32:43;;;;;;;12.52;4.90;;;;;;;;;;5039692;28;20097;-65
2022/04/13 12:35:10;;;;;;;10.15;4.75;;;;;;;;;;5041758;28;20080;-65
2022/04/13 12:37:36;;;;;;;10.30;5.20;;;;;;;;;;5039427;28;20084;-65
2022/04/13 12:40:19;;;;;;;9.88;4.65;;;;;;;;;;5041688;28;20073;-65
2022/04/13 12:42:45;;;;;;;13.43;4.88;;;;;;;;;;5040869;28;20140;-65
2022/04/13 12:45:12;;;;;;;9.30;4.40;;;;;;;;;;5038534;28;20120;-65
2022/04/13 12:47:45;;;;;;;10.43;5.15;;;;;;;;;;5039930;28;20136;-65
2022/04/13 12:50:15;;;;;;;12.63;5.28;;;;;;;;;;5034314;28;20158;-65
2022/04/13 12:52:44;;;;;;;10.45;4.78;;;;;;;;;;5037787;28;20080;-65
2022/04/13 12:55:11;;;;;;;12.05;5.07;;;;;;;;;;5042058;28;20144;-66
2022/04/13 12:57:39;;;;;;;11.93;5.40;;;;;;;;;;5040935;28;20106;-67
2022/04/13 13:00:06;;;;;;;9.07;5.18;;;;;;;;;;5037101;28;20848;-67
2022/04/13 13:02:32;;;;;;;12.83;5.37;;;;;;;;;;5036573;28;20132;-67
2022/04/13 13:05:05;;;;;;;9.48;4.82;;;;;;;;;;5039642;28;20131;-66
2022/04/13 13:07:35;;;;;;;10.48;5.50;;;;;;;;;;5041384;28;20502;-66
2022/04/13 13:10:02;;;;;;;10.73;5.10;;;;;;;;;;5039535;28;20170;-65
2022/04/13 13:12:31;;;;;;;9.32;4.57;;;;;;;;;;5037265;28;20552;-65
2022/04/13 13:14:58;;;;;;;10.60;5.05;;;;;;;;;;5042885;28;20557;-65
2022/04/13 13:17:31;;;;;;;7.65;3.80;;;;;;;;;;5039635;28;20080;-65
2022/04/13 13:20:08;;;;;;;7.25;4.22;;;;;;;;;;5035843;28;20460;-65
2022/04/13 13:22:38;;;;;;;9.43;4.20;;;;;;;;;;5040958;28;20127;-64
2022/04/13 13:25:13;;;;;;;10.90;3.92;;;;;;;;;;5039094;28;20131;-64
2022/04/13 13:27:43;;;;;;;9.27;4.07;;;;;;;;;;5040804;28;20084;-64
2022/04/13 13:30:09;;;;;;;8.25;4.20;;;;;;;;;;5037685;28;20132;-64
2022/04/13 13:32:37;;;;;;;8.15;3.88;;;;;;;;;;5042075;28;20095;-64
2022/04/13 13:35:04;;;;;;;;;;;;;;;;;;5037775;28;20049;-64
2022/04/13 13:37:31;;;;;;;11.20;4.25;;;;;;;;;;5034265;28;19924;-64
2022/04/13 13:39:58;;;;;;;10.15;3.78;;;;;;;;;;5035360;28;20161;-64
2022/04/13 13:42:24;;;;;;;9.43;4.25;;;;;;;;;;5043346;28;20107;-65
2022/04/13 13:44:51;;;;;;;11.57;4.07;;;;;;;;;;5035101;28;20126;-64
2022/04/13 13:47:17;;;;;;;9.70;4.53;;;;;;;;;;5038590;28;20128;-64
2022/04/13 13:49:44;;;;;;;10.15;4.00;;;;;;;;;;5042233;28;20096;-64
2022/04/13 13:52:10;;;;;;;8.80;4.03;;;;;;;;;;5036468;28;20099;-64
2022/04/13 13:54:38;;;;;;;7.15;4.13;;;;;;;;;;5035677;28;20497;-64
2022/04/13 13:57:05;;;;;;;11.25;4.72;;;;;;;;;;5039403;28;20128;-65
2022/04/13 13:59:31;;;;;;;12.38;4.40;;;;;;;;;;5040036;28;20085;-64
2022/04/13 14:02:04;;;;;;;9.85;4.40;;;;;;;;;;5035303;28;20472;-64
2022/04/13 14:04:31;;;;;;;9.68;4.63;;;;;;;;;;5040664;28;20056;-64
2022/04/13 14:06:58;;;;;;;9.60;4.90;;;;;;;;;;5045679;28;20156;-65
2022/04/13 14:09:29;;;;;;;9.57;4.72;;;;;;;;;;5044213;28;20140;-65
2022/04/13 14:11:56;;;;;;;10.38;4.82;;;;;;;;;;5040423;28;20147;-64
2022/04/13 14:14:22;;;;;;;9.63;4.35;;;;;;;;;;5040337;28;20133;-65
2022/04/13 14:16:50;;;;;;;12.07;4.95;;;;;;;;;;5042787;28;20076;-64
2022/04/13 14:19:17;;;;;;;12.02;4.72;;;;;;;;;;5038923;28;20085;-64
2022/04/13 14:21:44;;;;;;;9.00;5.15;;;;;;;;;;5043984;28;20575;-64
2022/04/13 14:24:10;;;;;;;13.95;4.90;;;;;;;;;;5038765;28;20053;-64
2022/04/13 14:26:37;;;;;;;10.45;4.25;;;;;;;;;;5040554;28;20131;-65
2022/04/13 14:29:04;;;;;;;8.55;4.35;;;;;;;;;;5036742;28;20055;-65
2022/04/13 14:31:30;;;;;;;9.50;4.22;;;;;;;;;;5035953;28;20072;-65
2022/04/13 14:33:58;;;;;;;7.53;4.20;;;;;;;;;;5038651;28;20054;-64
2022/04/13 14:36:25;;;;;;;;;;;;;;;;;;5039202;28;20049;-64
2022/04/13 14:38:51;;;;;;;8.77;3.67;;;;;;;;;;5040292;28;19972;-64
2022/04/13 14:41:18;;;;;;;9.27;4.03;;;;;;;;;;5038632;28;20063;-64
2022/04/13 14:46:30;;;;;;;7.68;3.65;;;;;;;;;;5331822;23;20173;-67
2022/04/13 14:48:58;;;;;;;13.57;4.15;;;;;;;;;;5018992;28;20136;-67
2022/04/13 14:51:24;;;;;;;7.45;3.60;;;;;;;;;;5018207;28;20595;-67
2022/04/13 14:53:53;;;;;;;9.73;4.28;;;;;;;;;;5018680;28;20515;-66
2022/04/13 14:56:22;;;;;;;9.70;3.67;;;;;;;;;;5021618;28;20087;-66
2022/04/13 14:58:49;;;;;;;10.73;4.00;;;;;;;;;;5020940;28;20132;-66